createdAt,value
2018-12-21T00:00:29.839Z,7.06
2018-12-21T00:01:29.885Z,7.11
2018-12-21T00:02:29.824Z,7.11
2018-12-21T00:03:29.806Z,7.10
2018-12-21T00:04:29.801Z,7.11
2018-12-21T00:05:29.785Z,7.11
2018-12-21T00:06:29.775Z,6.99
2018-12-21T00:07:29.765Z,7.15
2018-12-21T00:08:29.812Z,7.03
2018-12-21T00:09:29.759Z,6.97
2018-12-21T00:10:29.731Z,6.92
2018-12-21T00:11:29.720Z,6.99
2018-12-21T00:12:29.708Z,7.00
2018-12-21T00:13:29.701Z,7.00
2018-12-21T00:14:29.687Z,6.97
2018-12-21T00:15:29.677Z,6.97
2018-12-21T00:16:29.664Z,6.97
2018-12-21T00:17:34.524Z,6.88
2018-12-21T00:18:29.642Z,6.91
2018-12-21T00:19:29.631Z,6.92
2018-12-21T00:20:29.619Z,6.97
2018-12-21T00:21:29.609Z,6.99
2018-12-21T00:22:29.597Z,7.03
2018-12-21T00:23:29.586Z,6.97
2018-12-21T00:24:29.575Z,6.97
2018-12-21T00:25:29.563Z,7.04
2018-12-21T00:26:29.552Z,7.00
2018-12-21T00:27:29.541Z,7.01
2018-12-21T00:28:29.529Z,6.91
2018-12-21T00:29:29.519Z,6.96
2018-12-21T00:30:29.507Z,6.82
2018-12-21T00:31:29.496Z,6.77
2018-12-21T00:32:29.485Z,6.80
2018-12-21T00:33:29.473Z,6.84
2018-12-21T00:34:29.469Z,6.80
2018-12-21T00:35:29.451Z,6.70
2018-12-21T00:36:29.439Z,6.80
2018-12-21T00:37:29.435Z,6.84
2018-12-21T00:38:29.427Z,6.73
2018-12-21T00:39:29.407Z,6.67
2018-12-21T00:40:29.402Z,6.74
2018-12-21T00:41:29.391Z,6.72
2018-12-21T00:42:29.382Z,6.67
2018-12-21T00:43:29.364Z,6.67
2018-12-21T00:44:29.357Z,6.64
2018-12-21T00:45:29.342Z,6.64
2018-12-21T00:46:29.331Z,6.69
2018-12-21T00:47:29.437Z,6.64
2018-12-21T00:48:29.310Z,6.62
2018-12-21T00:49:29.301Z,6.72
2018-12-21T00:50:29.321Z,6.62
2018-12-21T00:51:30.364Z,6.69
2018-12-21T00:52:29.262Z,6.67
2018-12-21T00:53:29.250Z,6.62
2018-12-21T00:54:29.239Z,6.67
2018-12-21T00:55:29.228Z,6.54
2018-12-21T00:56:29.218Z,6.70
2018-12-21T00:57:29.206Z,6.59
2018-12-21T00:58:29.205Z,6.73
2018-12-21T00:59:29.217Z,6.70
2018-12-21T01:00:29.176Z,6.69
2018-12-21T01:01:29.165Z,6.60
2018-12-21T01:02:29.150Z,6.66
2018-12-21T01:03:29.159Z,6.60
2018-12-21T01:04:29.127Z,6.62
2018-12-21T01:05:29.115Z,6.54
2018-12-21T01:06:29.105Z,6.55
2018-12-21T01:07:29.094Z,6.60
2018-12-21T01:08:29.082Z,6.48
2018-12-21T01:09:29.073Z,6.51
2018-12-21T01:10:29.061Z,6.54
2018-12-21T01:11:29.047Z,6.36
2018-12-21T01:12:29.040Z,6.46
2018-12-21T01:13:29.025Z,6.39
2018-12-21T01:14:29.013Z,6.39
2018-12-21T01:15:29.005Z,6.42
2018-12-21T01:16:28.992Z,6.34
2018-12-21T01:17:28.991Z,6.46
2018-12-21T01:18:28.969Z,6.45
2018-12-21T01:19:28.958Z,6.34
2018-12-21T01:20:28.945Z,6.39
2018-12-21T01:21:28.942Z,6.34
2018-12-21T01:22:28.923Z,6.42
2018-12-21T01:23:28.911Z,6.42
2018-12-21T01:24:28.901Z,6.41
2018-12-21T01:25:28.896Z,6.34
2018-12-21T01:26:28.877Z,6.49
2018-12-21T01:27:28.868Z,6.46
2018-12-21T01:28:28.855Z,6.37
2018-12-21T01:29:28.850Z,6.39
2018-12-21T01:30:28.832Z,6.39
2018-12-21T01:31:28.820Z,6.36
2018-12-21T01:32:28.813Z,6.26
2018-12-21T01:33:28.799Z,6.33
2018-12-21T01:34:28.787Z,6.27
2018-12-21T01:35:28.779Z,6.29
2018-12-21T01:36:28.775Z,6.29
2018-12-21T01:37:28.758Z,6.29
2018-12-21T01:38:28.749Z,6.37
2018-12-21T01:39:28.730Z,6.29
2018-12-21T01:40:28.721Z,6.24
2018-12-21T01:41:28.713Z,6.41
2018-12-21T01:42:28.699Z,6.39
2018-12-21T01:43:28.687Z,6.34
2018-12-21T01:44:28.677Z,6.45
2018-12-21T01:45:28.663Z,6.42
2018-12-21T01:46:28.673Z,6.42
2018-12-21T01:47:28.641Z,6.45
2018-12-21T01:48:28.629Z,6.46
2018-12-21T01:49:28.621Z,6.49
2018-12-21T01:50:28.608Z,6.54
2018-12-21T01:51:28.598Z,6.49
2018-12-21T01:52:28.591Z,6.54
2018-12-21T01:53:28.576Z,6.64
2018-12-21T01:54:28.568Z,6.62
2018-12-21T01:55:28.550Z,6.63
2018-12-21T01:56:28.540Z,6.70
2018-12-21T01:57:28.529Z,6.67
2018-12-21T01:58:28.516Z,6.60
2018-12-21T01:59:28.515Z,6.54
2018-12-21T02:00:28.502Z,6.54
2018-12-21T02:01:28.488Z,6.72
2018-12-21T02:02:28.472Z,6.70
2018-12-21T02:03:28.473Z,6.60
2018-12-21T02:04:28.454Z,6.59
2018-12-21T02:05:28.443Z,6.49
2018-12-21T02:06:28.432Z,6.49
2018-12-21T02:07:28.414Z,6.48
2018-12-21T02:08:28.409Z,6.59
2018-12-21T02:09:28.399Z,6.49
2018-12-21T02:10:28.382Z,6.60
2018-12-21T02:11:28.371Z,6.66
2018-12-21T02:12:28.363Z,6.67
2018-12-21T02:13:28.355Z,6.67
2018-12-21T02:14:28.339Z,6.66
2018-12-21T02:15:28.343Z,6.62
2018-12-21T02:16:28.314Z,6.66
2018-12-21T02:17:28.313Z,6.67
2018-12-21T02:18:28.292Z,6.66
2018-12-21T02:19:28.281Z,6.63
2018-12-21T02:20:28.270Z,6.72
2018-12-21T02:21:28.262Z,6.82
2018-12-21T02:22:28.251Z,6.84
2018-12-21T02:23:28.240Z,6.78
2018-12-21T02:24:28.228Z,6.85
2018-12-21T02:25:28.212Z,6.73
2018-12-21T02:26:28.202Z,6.78
2018-12-21T02:27:28.196Z,6.70
2018-12-21T02:28:28.180Z,6.72
2018-12-21T02:29:28.167Z,6.74
2018-12-21T02:30:28.163Z,6.81
2018-12-21T02:31:28.145Z,6.77
2018-12-21T02:32:28.133Z,6.72
2018-12-21T02:33:28.123Z,6.72
2018-12-21T02:34:28.111Z,6.80
2018-12-21T02:35:28.102Z,6.84
2018-12-21T02:36:28.089Z,6.72
2018-12-21T02:37:28.079Z,6.82
2018-12-21T02:38:28.067Z,6.80
2018-12-21T02:39:28.061Z,6.77
2018-12-21T02:40:28.045Z,6.66
2018-12-21T02:41:28.033Z,6.63
2018-12-21T02:42:28.025Z,6.67
2018-12-21T02:43:28.014Z,6.64
2018-12-21T02:44:28.005Z,6.66
2018-12-21T02:45:27.992Z,6.73
2018-12-21T02:46:27.976Z,6.64
2018-12-21T02:47:27.965Z,6.63
2018-12-21T02:48:27.959Z,6.67
2018-12-21T02:49:27.950Z,6.66
2018-12-21T02:50:27.982Z,6.66
2018-12-21T02:51:27.919Z,6.64
2018-12-21T02:52:27.907Z,6.66
2018-12-21T02:53:27.903Z,6.64
2018-12-21T02:54:27.884Z,6.63
2018-12-21T02:55:27.877Z,6.67
2018-12-21T02:56:27.863Z,6.60
2018-12-21T02:57:27.859Z,6.64
2018-12-21T02:58:27.843Z,6.78
2018-12-21T02:59:27.833Z,6.74
2018-12-21T03:00:27.823Z,6.77
2018-12-21T03:01:27.815Z,6.74
2018-12-21T03:02:27.932Z,6.84
2018-12-21T03:03:27.791Z,6.80
2018-12-21T03:04:27.772Z,6.82
2018-12-21T03:05:27.762Z,6.88
2018-12-21T03:06:27.751Z,6.92
2018-12-21T03:07:27.745Z,6.87
2018-12-21T03:08:27.728Z,6.92
2018-12-21T03:09:27.717Z,7.00
2018-12-21T03:10:27.707Z,6.97
2018-12-21T03:11:27.698Z,7.01
2018-12-21T03:12:27.684Z,6.99
2018-12-21T03:13:27.672Z,6.96
2018-12-21T03:14:27.662Z,7.00
2018-12-21T03:15:27.648Z,6.97
2018-12-21T03:16:27.642Z,7.04
2018-12-21T03:17:27.629Z,7.01
2018-12-21T03:18:27.651Z,6.99
2018-12-21T03:19:27.603Z,6.99
2018-12-21T03:20:27.595Z,6.96
2018-12-21T03:21:27.582Z,7.10
2018-12-21T03:22:27.596Z,7.08
2018-12-21T03:23:27.561Z,6.96
2018-12-21T03:24:27.545Z,6.97
2018-12-21T03:25:27.535Z,7.08
2018-12-21T03:26:27.529Z,7.10
2018-12-21T03:27:27.512Z,7.11
2018-12-21T03:28:27.503Z,7.04
2018-12-21T03:29:27.489Z,6.91
2018-12-21T03:30:27.482Z,7.01
2018-12-21T03:31:27.470Z,6.96
2018-12-21T03:32:27.457Z,7.03
2018-12-21T03:33:27.450Z,7.01
2018-12-21T03:34:27.441Z,7.07
2018-12-21T03:35:27.434Z,7.08
2018-12-21T03:36:27.413Z,7.03
2018-12-21T03:37:27.401Z,7.15
2018-12-21T03:38:27.389Z,7.11
2018-12-21T03:39:27.392Z,7.15
2018-12-21T03:40:27.384Z,7.15
2018-12-21T03:41:27.355Z,7.11
2018-12-21T03:42:27.345Z,7.15
2018-12-21T03:43:27.331Z,7.10
2018-12-21T03:44:27.322Z,7.15
2018-12-21T03:45:27.310Z,7.08
2018-12-21T03:46:27.298Z,7.10
2018-12-21T03:47:27.287Z,7.07
2018-12-21T03:48:27.281Z,7.10
2018-12-21T03:49:27.275Z,7.16
2018-12-21T03:50:27.252Z,7.11
2018-12-21T03:51:27.373Z,7.11
2018-12-21T03:52:27.230Z,7.06
2018-12-21T03:53:27.221Z,7.06
2018-12-21T03:54:27.210Z,7.07
2018-12-21T03:55:27.199Z,7.11
2018-12-21T03:56:27.187Z,7.10
2018-12-21T03:57:27.182Z,7.13
2018-12-21T03:58:27.169Z,7.11
2018-12-21T03:59:27.158Z,7.13
2018-12-21T04:00:27.144Z,7.04
2018-12-21T04:01:27.131Z,6.99
2018-12-21T04:02:27.117Z,7.01
2018-12-21T04:03:27.106Z,6.99
2018-12-21T04:04:27.097Z,6.99
2018-12-21T04:05:27.084Z,7.10
2018-12-21T04:06:27.073Z,7.10
2018-12-21T04:07:27.062Z,7.07
2018-12-21T04:08:27.055Z,6.99
2018-12-21T04:09:27.041Z,7.13
2018-12-21T04:10:27.148Z,7.06
2018-12-21T04:11:27.016Z,6.91
2018-12-21T04:12:27.010Z,7.03
2018-12-21T04:13:26.999Z,7.07
2018-12-21T04:14:26.988Z,7.03
2018-12-21T04:15:26.971Z,7.13
2018-12-21T04:16:26.963Z,6.99
2018-12-21T04:17:26.949Z,7.15
2018-12-21T04:18:26.943Z,7.06
2018-12-21T04:19:26.925Z,7.03
2018-12-21T04:20:26.918Z,7.11
2018-12-21T04:21:26.907Z,7.13
2018-12-21T04:22:33.949Z,7.11
2018-12-21T04:23:51.359Z,7.13
2018-12-21T04:24:51.354Z,7.07
2018-12-21T04:25:51.336Z,7.10
2018-12-21T04:26:51.330Z,7.06
2018-12-21T04:27:51.315Z,7.13
2018-12-21T04:28:51.303Z,7.10
2018-12-21T04:29:51.292Z,7.07
2018-12-21T04:30:51.296Z,7.08
2018-12-21T04:31:51.268Z,7.06
2018-12-21T04:32:51.263Z,7.11
2018-12-21T04:33:51.244Z,7.11
2018-12-21T04:34:51.249Z,7.07
2018-12-21T04:35:51.223Z,7.10
2018-12-21T04:36:51.216Z,7.08
2018-12-21T04:37:51.204Z,7.10
2018-12-21T04:38:51.189Z,7.16
2018-12-21T04:39:51.185Z,7.18
2018-12-21T04:40:51.165Z,7.13
2018-12-21T04:41:51.156Z,7.19
2018-12-21T04:42:51.146Z,7.16
2018-12-21T04:43:51.139Z,7.11
2018-12-21T04:44:51.123Z,7.08
2018-12-21T04:45:51.118Z,7.16
2018-12-21T04:46:51.098Z,7.10
2018-12-21T04:47:51.096Z,7.11
2018-12-21T04:48:51.077Z,7.11
2018-12-21T04:49:51.068Z,7.11
2018-12-21T04:50:51.052Z,7.13
2018-12-21T04:51:51.043Z,7.15
2018-12-21T04:52:51.030Z,7.13
2018-12-21T04:53:51.019Z,7.13
2018-12-21T04:54:51.009Z,7.08
2018-12-21T04:55:50.996Z,7.15
2018-12-21T04:56:50.988Z,7.03
2018-12-21T04:57:50.973Z,7.10
2018-12-21T04:58:50.964Z,7.15
2018-12-21T04:59:50.952Z,7.21
2018-12-21T05:00:51.043Z,7.11
2018-12-21T05:01:50.927Z,7.15
2018-12-21T05:02:50.918Z,7.15
2018-12-21T05:03:50.906Z,7.13
2018-12-21T05:04:50.894Z,7.11
2018-12-21T05:05:50.886Z,7.22
2018-12-21T05:06:50.875Z,7.10
2018-12-21T05:07:50.864Z,7.16
2018-12-21T05:08:50.854Z,7.16
2018-12-21T05:09:50.837Z,7.22
2018-12-21T05:10:50.834Z,7.19
2018-12-21T05:11:50.822Z,7.22
2018-12-21T05:12:50.818Z,7.07
2018-12-21T05:13:50.795Z,7.11
2018-12-21T05:14:50.781Z,7.08
2018-12-21T05:15:50.770Z,7.11
2018-12-21T05:16:50.762Z,7.21
2018-12-21T05:17:50.752Z,7.13
2018-12-21T05:18:50.745Z,7.16
2018-12-21T05:19:50.731Z,7.10
2018-12-21T05:20:50.717Z,7.07
2018-12-21T05:21:50.732Z,7.00
2018-12-21T05:22:52.437Z,7.13
2018-12-21T05:23:50.683Z,7.18
2018-12-21T05:24:50.675Z,7.16
2018-12-21T05:25:50.662Z,7.21
2018-12-21T05:26:50.653Z,7.08
2018-12-21T05:27:50.639Z,7.18
2018-12-21T05:28:50.627Z,7.00
2018-12-21T05:29:50.619Z,7.07
2018-12-21T05:30:50.607Z,7.07
2018-12-21T05:31:50.592Z,7.13
2018-12-21T05:32:50.580Z,7.21
2018-12-21T05:33:50.569Z,7.13
2018-12-21T05:34:50.560Z,7.19
2018-12-21T05:35:50.553Z,7.24
2018-12-21T05:36:50.538Z,7.24
2018-12-21T05:37:50.524Z,7.22
2018-12-21T05:38:50.512Z,7.36
2018-12-21T05:39:50.499Z,7.26
2018-12-21T05:40:50.490Z,7.25
2018-12-21T05:41:50.478Z,7.25
2018-12-21T05:42:50.467Z,7.31
2018-12-21T05:43:50.464Z,7.31
2018-12-21T05:44:50.443Z,7.21
2018-12-21T05:45:50.432Z,7.31
2018-12-21T05:46:50.431Z,7.26
2018-12-21T05:47:50.409Z,7.18
2018-12-21T05:48:50.397Z,7.16
2018-12-21T05:49:50.388Z,7.21
2018-12-21T05:50:50.381Z,7.33
2018-12-21T05:51:50.367Z,7.33
2018-12-21T05:52:50.358Z,7.28
2018-12-21T05:53:50.341Z,7.31
2018-12-21T05:54:50.330Z,7.28
2018-12-21T05:55:50.319Z,7.24
2018-12-21T05:56:50.310Z,7.11
2018-12-21T05:57:50.298Z,7.21
2018-12-21T05:58:50.293Z,7.16
2018-12-21T05:59:50.282Z,7.15
2018-12-21T06:00:50.267Z,7.11
2018-12-21T06:01:50.253Z,7.19
2018-12-21T06:02:50.240Z,7.22
2018-12-21T06:03:50.231Z,7.31
2018-12-21T06:04:50.220Z,7.22
2018-12-21T06:05:50.208Z,7.19
2018-12-21T06:06:50.200Z,7.22
2018-12-21T06:07:50.185Z,7.25
2018-12-21T06:08:50.173Z,7.24
2018-12-21T06:09:50.165Z,7.34
2018-12-21T06:10:50.151Z,7.22
2018-12-21T06:11:50.139Z,7.25
2018-12-21T06:12:50.131Z,7.21
2018-12-21T06:13:50.123Z,7.24
2018-12-21T06:14:50.112Z,7.21
2018-12-21T06:15:50.102Z,7.25
2018-12-21T06:16:50.083Z,7.28
2018-12-21T06:17:50.080Z,7.29
2018-12-21T06:18:50.059Z,7.24
2018-12-21T06:19:50.051Z,7.15
2018-12-21T06:20:50.037Z,7.21
2018-12-21T06:21:50.026Z,7.22
2018-12-21T06:22:50.016Z,7.21
2018-12-21T06:23:50.011Z,7.22
2018-12-21T06:24:49.991Z,7.28
2018-12-21T06:25:49.981Z,7.31
2018-12-21T06:26:49.970Z,7.31
2018-12-21T06:27:49.957Z,7.24
2018-12-21T06:28:49.949Z,7.29
2018-12-21T06:29:49.940Z,7.33
2018-12-21T06:30:49.924Z,7.25
2018-12-21T06:31:49.914Z,7.28
2018-12-21T06:32:49.907Z,7.31
2018-12-21T06:33:49.894Z,7.29
2018-12-21T06:34:49.884Z,7.26
2018-12-21T06:35:49.874Z,7.34
2018-12-21T06:36:49.864Z,7.36
2018-12-21T06:37:49.896Z,7.40
2018-12-21T06:38:49.835Z,7.36
2018-12-21T06:39:49.822Z,7.37
2018-12-21T06:40:49.815Z,7.49
2018-12-21T06:41:49.801Z,7.39
2018-12-21T06:42:50.800Z,7.46
2018-12-21T06:43:49.778Z,7.44
2018-12-21T06:44:49.767Z,7.43
2018-12-21T06:45:49.755Z,7.47
2018-12-21T06:46:49.748Z,7.47
2018-12-21T06:47:49.734Z,7.52
2018-12-21T06:48:49.730Z,7.47
2018-12-21T06:49:49.711Z,7.34
2018-12-21T06:50:49.699Z,7.39
2018-12-21T06:51:49.696Z,7.36
2018-12-21T06:52:49.676Z,7.34
2018-12-21T06:53:49.666Z,7.36
2018-12-21T06:54:49.654Z,7.42
2018-12-21T06:55:49.641Z,7.40
2018-12-21T06:56:49.632Z,7.42
2018-12-21T06:57:49.620Z,7.52
2018-12-21T06:58:49.610Z,7.42
2018-12-21T06:59:49.600Z,7.43
2018-12-21T07:00:49.588Z,7.40
2018-12-21T07:01:49.575Z,7.40
2018-12-21T07:02:49.565Z,7.44
2018-12-21T07:03:49.553Z,7.44
2018-12-21T07:04:49.539Z,7.47
2018-12-21T07:05:49.529Z,7.42
2018-12-21T07:06:49.524Z,7.46
2018-12-21T07:07:49.508Z,7.42
2018-12-21T07:08:49.524Z,7.44
2018-12-21T07:09:49.491Z,7.54
2018-12-21T07:10:49.486Z,7.42
2018-12-21T07:11:49.467Z,7.46
2018-12-21T07:12:49.452Z,7.46
2018-12-21T07:13:49.444Z,7.47
2018-12-21T07:14:49.428Z,7.43
2018-12-21T07:15:49.418Z,7.42
2018-12-21T07:16:49.405Z,7.46
2018-12-21T07:17:49.394Z,7.46
2018-12-21T07:18:49.388Z,7.46
2018-12-21T07:19:49.371Z,7.43
2018-12-21T07:20:49.370Z,7.43
2018-12-21T07:21:49.355Z,7.46
2018-12-21T07:22:49.338Z,7.44
2018-12-21T07:23:49.328Z,7.39
2018-12-21T07:24:49.323Z,7.37
2018-12-21T07:25:49.304Z,7.26
2018-12-21T07:26:49.297Z,7.33
2018-12-21T07:27:49.287Z,7.33
2018-12-21T07:28:49.269Z,7.22
2018-12-21T07:29:49.260Z,7.21
2018-12-21T07:30:49.248Z,7.22
2018-12-21T07:31:49.235Z,7.21
2018-12-21T07:32:49.226Z,7.31
2018-12-21T07:33:49.213Z,7.22
2018-12-21T07:34:49.214Z,7.22
2018-12-21T07:35:49.194Z,7.34
2018-12-21T07:36:49.179Z,7.28
2018-12-21T07:37:49.170Z,7.37
2018-12-21T07:38:49.157Z,7.39
2018-12-21T07:39:49.147Z,7.50
2018-12-21T07:40:49.139Z,7.54
2018-12-21T07:41:49.135Z,7.37
2018-12-21T07:42:49.114Z,7.43
2018-12-21T07:43:49.110Z,7.36
2018-12-21T07:44:49.095Z,7.36
2018-12-21T07:45:49.082Z,7.39
2018-12-21T07:46:49.079Z,7.37
2018-12-21T07:47:49.063Z,7.40
2018-12-21T07:48:49.066Z,7.39
2018-12-21T07:49:49.035Z,7.43
2018-12-21T07:50:49.022Z,7.39
2018-12-21T07:51:49.024Z,7.33
2018-12-21T07:52:48.999Z,7.36
2018-12-21T07:53:48.991Z,7.39
2018-12-21T07:54:48.986Z,7.43
2018-12-21T07:55:48.966Z,7.49
2018-12-21T07:56:48.955Z,7.36
2018-12-21T07:57:48.945Z,7.44
2018-12-21T07:58:56.931Z,7.44
2018-12-21T07:59:49.945Z,7.40
2018-12-21T08:00:48.911Z,7.39
2018-12-21T08:01:48.899Z,7.36
2018-12-21T08:02:48.886Z,7.46
2018-12-21T08:03:48.874Z,7.43
2018-12-21T08:04:48.871Z,7.36
2018-12-21T08:05:48.859Z,7.33
2018-12-21T08:06:48.842Z,7.29
2018-12-21T08:07:48.830Z,7.28
2018-12-21T08:08:48.822Z,7.22
2018-12-21T08:09:48.815Z,7.26
2018-12-21T08:10:48.796Z,7.28
2018-12-21T08:11:48.785Z,7.42
2018-12-21T08:12:48.773Z,7.34
2018-12-21T08:13:48.768Z,7.42
2018-12-21T08:14:48.755Z,7.42
2018-12-21T08:15:48.748Z,7.46
2018-12-21T08:16:48.732Z,7.40
2018-12-21T08:17:48.719Z,7.33
2018-12-21T08:18:48.707Z,7.52
2018-12-21T08:19:48.696Z,7.47
2018-12-21T08:20:48.683Z,7.43
2018-12-21T08:21:48.674Z,7.42
2018-12-21T08:22:48.663Z,7.40
2018-12-21T08:23:48.650Z,7.42
2018-12-21T08:24:48.645Z,7.47
2018-12-21T08:25:48.628Z,7.46
2018-12-21T08:26:48.617Z,7.44
2018-12-21T08:27:48.606Z,7.47
2018-12-21T08:28:48.594Z,7.40
2018-12-21T08:29:48.590Z,7.42
2018-12-21T08:30:48.578Z,7.43
2018-12-21T08:31:48.565Z,7.49
2018-12-21T08:32:48.554Z,7.47
2018-12-21T08:33:48.543Z,7.44
2018-12-21T08:34:48.534Z,7.47
2018-12-21T08:35:48.527Z,7.61
2018-12-21T08:36:48.508Z,7.57
2018-12-21T08:37:48.497Z,7.57
2018-12-21T08:38:48.484Z,7.52
2018-12-21T08:39:48.473Z,7.52
2018-12-21T08:40:48.468Z,7.50
2018-12-21T08:41:48.452Z,7.55
2018-12-21T08:42:48.447Z,7.68
2018-12-21T08:43:48.432Z,7.60
2018-12-21T08:44:48.424Z,7.65
2018-12-21T08:45:48.414Z,7.67
2018-12-21T08:46:48.396Z,7.61
2018-12-21T08:47:48.382Z,7.73
2018-12-21T08:48:48.391Z,7.60
2018-12-21T08:49:48.366Z,7.72
2018-12-21T08:50:48.348Z,7.70
2018-12-21T08:51:48.342Z,7.62
2018-12-21T08:52:48.330Z,7.57
2018-12-21T08:53:52.552Z,7.50
2018-12-21T08:54:48.303Z,7.52
2018-12-21T08:55:48.294Z,7.44
2018-12-21T08:56:48.281Z,7.46
2018-12-21T08:57:48.271Z,7.55
2018-12-21T08:58:48.259Z,7.57
2018-12-21T08:59:48.250Z,7.55
2018-12-21T09:00:48.240Z,7.58
2018-12-21T09:01:48.227Z,7.50
2018-12-21T09:02:48.217Z,7.47
2018-12-21T09:03:48.210Z,7.46
2018-12-21T09:04:48.196Z,7.50
2018-12-21T09:05:48.182Z,7.52
2018-12-21T09:07:48.163Z,7.42
2018-12-21T09:08:48.150Z,7.50
2018-12-21T09:09:48.139Z,7.55
2018-12-21T09:10:48.124Z,7.62
2018-12-21T09:11:48.112Z,7.58
2018-12-21T09:12:48.103Z,7.54
2018-12-21T09:13:48.090Z,7.70
2018-12-21T09:14:48.077Z,7.65
2018-12-21T09:15:48.068Z,7.67
2018-12-21T09:16:48.058Z,7.58
2018-12-21T09:17:48.046Z,7.60
2018-12-21T09:18:48.040Z,7.61
2018-12-21T09:19:48.028Z,7.57
2018-12-21T09:20:48.013Z,7.62
2018-12-21T09:21:48.002Z,7.68
2018-12-21T09:22:47.986Z,7.58
2018-12-21T09:23:47.981Z,7.57
2018-12-21T09:24:47.972Z,7.61
2018-12-21T09:25:47.962Z,7.64
2018-12-21T09:26:47.943Z,7.70
2018-12-21T09:27:47.937Z,7.67
2018-12-21T09:28:47.919Z,7.67
2018-12-21T09:29:47.907Z,7.76
2018-12-21T09:30:47.900Z,7.90
2018-12-21T09:31:47.889Z,7.83
2018-12-21T09:32:47.881Z,7.79
2018-12-21T09:33:47.864Z,7.75
2018-12-21T09:34:47.853Z,7.87
2018-12-21T09:35:47.841Z,7.91
2018-12-21T09:36:47.839Z,7.90
2018-12-21T09:37:47.824Z,7.86
2018-12-21T09:38:47.806Z,7.82
2018-12-21T09:39:47.800Z,7.86
2018-12-21T09:40:47.786Z,7.90
2018-12-21T09:41:47.775Z,7.95
2018-12-21T09:42:47.762Z,7.97
2018-12-21T09:43:47.763Z,7.94
2018-12-21T09:44:52.469Z,8.03
2018-12-21T09:45:47.763Z,8.09
2018-12-21T09:46:47.774Z,8.11
2018-12-21T09:47:47.709Z,8.13
2018-12-21T09:48:47.722Z,8.12
2018-12-21T09:49:47.716Z,8.13
2018-12-21T09:50:47.918Z,8.15
2018-12-21T09:51:47.664Z,8.16
2018-12-21T09:52:47.653Z,8.12
2018-12-21T09:53:47.639Z,8.23
2018-12-21T09:54:47.637Z,8.20
2018-12-21T09:55:47.615Z,8.19
2018-12-21T09:56:47.605Z,8.20
2018-12-21T09:57:47.597Z,8.16
2018-12-21T09:58:47.584Z,8.23
2018-12-21T09:59:47.570Z,8.18
2018-12-21T10:00:47.559Z,8.18
2018-12-21T10:01:47.571Z,8.20
2018-12-21T10:02:47.539Z,8.23
2018-12-21T10:03:47.528Z,8.22
2018-12-21T10:04:47.517Z,8.20
2018-12-21T10:05:47.506Z,8.23
2018-12-21T10:06:47.492Z,8.22
2018-12-21T10:07:47.484Z,8.20
2018-12-21T10:08:47.472Z,8.27
2018-12-21T10:09:47.460Z,8.23
2018-12-21T10:10:47.455Z,8.25
2018-12-21T10:11:47.438Z,8.23
2018-12-21T10:12:47.427Z,8.28
2018-12-21T10:13:47.418Z,8.31
2018-12-21T10:14:47.413Z,8.37
2018-12-21T10:15:47.393Z,8.41
2018-12-21T10:16:47.385Z,8.42
2018-12-21T10:17:47.372Z,8.39
2018-12-21T10:18:47.365Z,8.31
2018-12-21T10:19:47.350Z,8.42
2018-12-21T10:20:47.339Z,8.34
2018-12-21T10:21:47.329Z,8.42
2018-12-21T10:22:47.316Z,8.41
2018-12-21T10:23:47.307Z,8.37
2018-12-21T10:24:47.294Z,8.47
2018-12-21T10:25:47.290Z,8.44
2018-12-21T10:26:47.273Z,8.49
2018-12-21T10:27:47.263Z,8.47
2018-12-21T10:28:47.254Z,8.50
2018-12-21T10:29:47.241Z,8.47
2018-12-21T10:30:47.232Z,8.53
2018-12-21T10:31:47.224Z,8.33
2018-12-21T10:32:47.216Z,8.23
2018-12-21T10:33:47.198Z,8.33
2018-12-21T10:34:47.187Z,8.34
2018-12-21T10:35:47.183Z,8.41
2018-12-21T10:36:47.167Z,8.49
2018-12-21T10:37:47.160Z,8.37
2018-12-21T10:38:47.145Z,8.39
2018-12-21T10:39:47.151Z,8.50
2018-12-21T10:40:47.122Z,8.41
2018-12-21T10:41:47.112Z,8.52
2018-12-21T10:42:47.100Z,8.50
2018-12-21T10:43:47.088Z,8.50
2018-12-21T10:44:47.078Z,8.52
2018-12-21T10:45:47.072Z,8.55
2018-12-21T10:46:47.056Z,8.53
2018-12-21T10:47:47.054Z,8.65
2018-12-21T10:48:47.037Z,8.72
2018-12-21T10:49:47.030Z,8.70
2018-12-21T10:50:47.015Z,8.70
2018-12-21T10:51:47.003Z,8.68
2018-12-21T10:52:46.997Z,8.67
2018-12-21T10:53:46.987Z,8.65
2018-12-21T10:54:46.971Z,8.67
2018-12-21T10:55:46.963Z,8.63
2018-12-21T10:56:46.965Z,8.67
2018-12-21T10:57:46.937Z,8.67
2018-12-21T10:58:46.926Z,8.59
2018-12-21T10:59:46.917Z,8.60
2018-12-21T11:00:46.907Z,8.68
2018-12-21T11:01:46.894Z,8.70
2018-12-21T11:02:46.892Z,8.63
2018-12-21T11:03:46.874Z,8.57
2018-12-21T11:04:46.862Z,8.55
2018-12-21T11:05:46.850Z,8.52
2018-12-21T11:06:46.847Z,8.55
2018-12-21T11:07:46.831Z,8.56
2018-12-21T11:08:46.822Z,8.56
2018-12-21T11:09:46.810Z,8.55
2018-12-21T11:10:46.801Z,8.52
2018-12-21T11:11:46.792Z,8.55
2018-12-21T11:12:46.779Z,8.56
2018-12-21T11:13:46.771Z,8.60
2018-12-21T11:14:46.756Z,8.59
2018-12-21T11:15:46.825Z,8.65
2018-12-21T11:16:46.735Z,8.62
2018-12-21T11:17:46.723Z,8.67
2018-12-21T11:18:46.711Z,8.65
2018-12-21T11:19:46.697Z,8.70
2018-12-21T11:20:46.692Z,8.68
2018-12-21T11:21:46.716Z,8.78
2018-12-21T11:22:46.664Z,8.77
2018-12-21T11:23:46.655Z,8.71
2018-12-21T11:24:46.646Z,8.68
2018-12-21T11:25:46.632Z,8.78
2018-12-21T11:26:46.623Z,8.81
2018-12-21T11:27:46.613Z,8.62
2018-12-21T11:28:46.600Z,8.75
2018-12-21T11:29:46.591Z,8.65
2018-12-21T11:30:46.686Z,8.62
2018-12-21T11:31:46.568Z,8.65
2018-12-21T11:32:46.563Z,8.67
2018-12-21T11:33:46.548Z,8.63
2018-12-21T11:34:46.535Z,8.78
2018-12-21T11:35:46.523Z,8.67
2018-12-21T11:36:46.521Z,8.72
2018-12-21T11:37:46.501Z,8.67
2018-12-21T11:38:46.491Z,8.70
2018-12-21T11:39:46.481Z,8.65
2018-12-21T11:40:46.468Z,8.62
2018-12-21T11:41:46.459Z,8.62
2018-12-21T11:42:46.453Z,8.71
2018-12-21T11:43:46.441Z,8.71
2018-12-21T11:44:46.434Z,8.67
2018-12-21T11:45:46.415Z,8.68
2018-12-21T11:46:46.406Z,8.65
2018-12-21T11:47:46.395Z,8.67
2018-12-21T11:48:46.382Z,8.78
2018-12-21T11:49:46.376Z,8.77
2018-12-21T11:50:46.360Z,8.75
2018-12-21T11:51:46.349Z,8.65
2018-12-21T11:52:46.342Z,8.67
2018-12-21T11:53:46.327Z,8.56
2018-12-21T11:54:46.315Z,8.57
2018-12-21T11:55:46.308Z,8.53
2018-12-21T11:56:46.294Z,8.59
2018-12-21T11:57:46.286Z,8.55
2018-12-21T11:58:46.274Z,8.62
2018-12-21T11:59:46.266Z,8.65
2018-12-21T12:00:46.253Z,8.56
2018-12-21T12:01:46.246Z,8.59
2018-12-21T12:02:46.229Z,8.60
2018-12-21T12:03:46.222Z,8.67
2018-12-21T12:04:46.209Z,8.68
2018-12-21T12:05:46.198Z,8.53
2018-12-21T12:06:46.186Z,8.57
2018-12-21T12:07:46.176Z,8.59
2018-12-21T12:08:46.166Z,8.71
2018-12-21T12:09:46.154Z,8.63
2018-12-21T12:10:46.145Z,8.65
2018-12-21T12:11:46.135Z,8.53
2018-12-21T12:12:46.126Z,8.53
2018-12-21T12:13:46.114Z,8.65
2018-12-21T12:14:46.101Z,8.70
2018-12-21T12:15:46.092Z,8.67
2018-12-21T12:16:46.079Z,8.70
2018-12-21T12:17:46.066Z,8.63
2018-12-21T12:18:46.057Z,8.72
2018-12-21T12:19:46.054Z,8.77
2018-12-21T12:20:46.035Z,8.77
2018-12-21T12:21:46.024Z,8.83
2018-12-21T12:22:46.013Z,8.77
2018-12-21T12:23:46.007Z,8.63
2018-12-21T12:24:52.728Z,8.78
2018-12-21T12:26:10.461Z,8.75
2018-12-21T12:27:10.452Z,8.70
2018-12-21T12:28:10.439Z,8.80
2018-12-21T12:29:10.430Z,8.80
2018-12-21T12:30:10.422Z,8.74
2018-12-21T12:31:10.404Z,8.63
2018-12-21T12:32:10.399Z,8.67
2018-12-21T12:33:10.384Z,8.68
2018-12-21T12:34:10.371Z,8.68
2018-12-21T12:35:10.363Z,8.71
2018-12-21T12:36:10.353Z,8.52
2018-12-21T12:37:10.340Z,8.62
2018-12-21T12:38:10.335Z,8.59
2018-12-21T12:39:10.313Z,8.59
2018-12-21T12:40:10.302Z,8.67
2018-12-21T12:41:10.294Z,8.63
2018-12-21T12:42:10.280Z,8.60
2018-12-21T12:43:10.277Z,8.63
2018-12-21T12:44:10.263Z,8.63
2018-12-21T12:45:10.249Z,8.53
2018-12-21T12:46:10.248Z,8.52
2018-12-21T12:47:10.228Z,8.56
2018-12-21T12:48:10.216Z,8.46
2018-12-21T12:49:10.211Z,8.53
2018-12-21T12:50:10.195Z,8.50
2018-12-21T12:51:10.189Z,8.49
2018-12-21T12:52:10.173Z,8.41
2018-12-21T12:53:10.162Z,8.42
2018-12-21T12:54:10.151Z,8.44
2018-12-21T12:55:10.139Z,8.42
2018-12-21T12:56:10.130Z,8.42
2018-12-21T12:57:10.119Z,8.33
2018-12-21T12:58:10.114Z,8.34
2018-12-21T12:59:10.096Z,8.33
2018-12-21T13:00:10.084Z,8.38
2018-12-21T13:01:10.074Z,8.38
2018-12-21T13:02:10.066Z,8.33
2018-12-21T13:03:10.052Z,8.41
2018-12-21T13:04:10.048Z,8.46
2018-12-21T13:05:10.033Z,8.41
2018-12-21T13:06:10.022Z,8.39
2018-12-21T13:07:10.013Z,8.38
2018-12-21T13:08:10.000Z,8.42
2018-12-21T13:09:09.999Z,8.39
2018-12-21T13:10:09.977Z,8.31
2018-12-21T13:11:09.965Z,8.38
2018-12-21T13:12:09.955Z,8.28
2018-12-21T13:13:09.947Z,8.19
2018-12-21T13:14:09.932Z,8.16
2018-12-21T13:15:09.930Z,8.19
2018-12-21T13:16:09.917Z,8.16
2018-12-21T13:17:09.900Z,8.09
2018-12-21T13:18:09.898Z,8.18
2018-12-21T13:19:09.877Z,8.25
2018-12-21T13:20:09.866Z,8.25